createdAt,value
2024-05-09T00:00:55.866Z,95989.34
2024-05-09T00:05:59.124Z,95984.31
2024-05-09T00:11:10.100Z,96004.03
2024-05-09T00:16:13.300Z,96016.78
2024-05-09T00:21:16.498Z,96017.72
2024-05-09T00:26:22.712Z,96020.50
2024-05-09T00:31:26.056Z,96034.41
2024-05-09T00:36:29.160Z,96045.06
2024-05-09T00:41:35.365Z,96053.09
2024-05-09T00:46:38.968Z,96062.22
2024-05-09T00:51:43.347Z,96063.81
2024-05-09T00:56:50.200Z,96074.38
2024-05-09T01:01:54.016Z,96087.00
2024-05-09T01:06:57.480Z,96094.91
2024-05-09T01:12:03.561Z,96107.66
2024-05-09T01:17:07.038Z,96107.47
2024-05-09T01:22:10.517Z,96127.53
2024-05-09T01:27:16.783Z,96135.81
2024-05-09T01:32:19.991Z,96147.66
2024-05-09T01:37:23.153Z,96136.03
2024-05-09T01:42:29.064Z,96141.31
2024-05-09T01:47:33.173Z,96142.28
2024-05-09T01:52:36.619Z,96144.25
2024-05-09T01:57:42.556Z,96152.63
2024-05-09T02:02:46.047Z,96159.81
2024-05-09T02:07:49.407Z,96162.91
2024-05-09T02:12:55.266Z,96161.63
2024-05-09T02:17:58.519Z,96185.06
2024-05-09T02:23:01.943Z,96195.91
2024-05-09T02:28:08.706Z,96205.06
2024-05-09T02:33:13.727Z,96229.88
2024-05-09T02:38:17.740Z,96240.88
2024-05-09T02:43:23.945Z,96258.13
2024-05-09T02:48:27.249Z,96268.88
2024-05-09T02:53:30.658Z,96291.47
2024-05-09T02:58:36.677Z,96302.06
2024-05-09T03:03:40.176Z,96324.91
2024-05-09T03:08:45.933Z,96336.41
2024-05-09T03:13:52.842Z,96354.81
2024-05-09T03:18:56.050Z,96361.69
2024-05-09T03:23:59.254Z,96370.00
2024-05-09T03:29:05.489Z,96380.28
2024-05-09T03:34:08.669Z,96382.00
2024-05-09T03:39:12.113Z,96399.41
2024-05-09T03:44:18.628Z,96401.81
2024-05-09T03:49:22.395Z,96415.38
2024-05-09T03:54:25.921Z,96420.16
2024-05-09T03:59:31.909Z,96419.72
2024-05-09T04:04:35.259Z,96421.81
2024-05-09T04:09:38.460Z,96437.50
2024-05-09T04:14:44.339Z,96453.25
2024-05-09T04:19:47.569Z,96466.34
2024-05-09T04:24:50.673Z,96461.50
2024-05-09T04:29:56.947Z,96468.91
2024-05-09T04:35:00.385Z,96474.91
2024-05-09T04:40:05.415Z,96483.47
2024-05-09T04:45:12.842Z,96487.34
2024-05-09T04:50:24.653Z,96499.28
2024-05-09T04:55:32.840Z,96496.38
2024-05-09T05:06:14.679Z,96520.03
2024-05-09T05:11:17.839Z,96530.53
2024-05-09T05:16:21.060Z,96526.97
2024-05-09T05:21:27.162Z,96540.94
2024-05-09T05:26:30.374Z,96537.91
2024-05-09T05:31:33.523Z,96544.16
2024-05-09T05:36:39.496Z,96552.41
2024-05-09T05:41:42.597Z,96560.66
2024-05-09T05:46:45.759Z,96554.47
2024-05-09T05:51:51.650Z,96549.22
2024-05-09T05:56:54.841Z,96546.63
2024-05-09T06:01:58.042Z,96554.25
2024-05-09T06:07:04.789Z,96549.84
2024-05-09T06:12:08.224Z,96564.72
2024-05-09T06:17:11.625Z,96560.06
2024-05-09T06:22:17.646Z,96559.69
2024-05-09T06:27:20.966Z,96553.78
2024-05-09T06:32:24.409Z,96578.69
2024-05-09T06:37:30.410Z,96574.22
2024-05-09T06:42:33.594Z,96577.34
2024-05-09T06:47:36.875Z,96589.91
2024-05-09T06:52:43.180Z,96584.88
2024-05-09T06:57:46.281Z,96592.44
2024-05-09T07:02:49.656Z,96599.91
2024-05-09T07:07:56.149Z,96606.50
2024-05-09T07:12:59.462Z,96609.41
2024-05-09T07:18:08.037Z,96617.94
2024-05-09T07:23:14.159Z,96614.00
2024-05-09T07:28:18.559Z,96614.81
2024-05-09T07:33:23.962Z,96610.31
2024-05-09T07:38:30.643Z,96616.97
2024-05-09T07:43:33.838Z,96624.47
2024-05-09T07:50:34.460Z,96636.44
2024-05-09T07:54:03.462Z,96631.34
2024-05-09T07:59:07.134Z,96645.88
2024-05-09T08:04:10.335Z,96656.22
2024-05-09T08:09:20.598Z,96652.72
2024-05-09T08:14:24.535Z,96654.19
2024-05-09T08:19:27.687Z,96661.53
2024-05-09T08:24:34.100Z,96674.56
2024-05-09T08:29:37.234Z,96667.84
2024-05-09T08:34:40.608Z,96672.03
2024-05-09T08:39:46.598Z,96676.34
2024-05-09T08:44:50.799Z,96703.03
2024-05-09T08:49:55.454Z,96711.84
2024-05-09T08:55:01.918Z,96717.13
2024-05-09T09:00:10.112Z,96728.97
2024-05-09T09:05:18.306Z,96715.47
2024-05-09T09:10:31.064Z,96725.41
2024-05-09T09:15:35.503Z,96725.66
2024-05-09T09:20:38.767Z,96737.56
2024-05-09T09:25:45.077Z,96740.16
2024-05-09T09:30:48.308Z,96742.91
2024-05-09T09:35:51.392Z,96741.31
2024-05-09T09:40:57.320Z,96742.84
2024-05-09T09:46:02.551Z,96744.44
2024-05-09T09:51:07.337Z,96752.03
2024-05-09T09:56:17.794Z,96743.91
2024-05-09T10:01:21.314Z,96740.47
2024-05-09T10:06:25.066Z,96721.19
2024-05-09T10:11:39.813Z,96725.78
2024-05-09T10:16:48.705Z,96722.25
2024-05-09T10:21:52.790Z,96723.38
2024-05-09T10:27:04.338Z,96727.44
2024-05-09T10:32:09.874Z,96735.72
2024-05-09T10:37:13.464Z,96752.06
2024-05-09T10:42:20.311Z,96756.66
2024-05-09T10:47:23.723Z,96767.38
2024-05-09T10:52:26.879Z,96776.63
2024-05-09T10:57:39.182Z,96775.66
2024-05-09T11:02:42.760Z,96771.41
2024-05-09T11:07:46.257Z,96778.25
2024-05-09T11:12:52.231Z,96783.41
2024-05-09T11:17:55.629Z,96787.78
2024-05-09T11:22:59.077Z,96801.69
2024-05-09T11:28:06.603Z,96804.63
2024-05-09T11:33:12.306Z,96815.09
2024-05-09T11:38:15.446Z,96828.88
2024-05-09T11:43:21.531Z,96833.41
2024-05-09T11:48:25.023Z,96834.19
2024-05-09T11:53:28.358Z,96844.06
2024-05-09T11:58:34.440Z,96838.84
2024-05-09T12:03:37.782Z,96855.84
2024-05-09T12:08:41.532Z,96866.94
2024-05-09T12:13:47.471Z,96868.03
2024-05-09T12:18:50.611Z,96873.81
2024-05-09T12:23:53.747Z,96894.94
2024-05-09T12:28:59.932Z,96895.44
2024-05-09T12:34:03.435Z,96902.81
2024-05-09T12:39:06.637Z,96898.06
2024-05-09T12:44:12.522Z,96901.88
2024-05-09T12:49:18.919Z,96905.22
2024-05-09T12:54:22.924Z,96911.59
2024-05-09T12:59:28.948Z,96930.56
2024-05-09T13:04:32.338Z,96932.28
2024-05-09T13:09:35.658Z,96942.31
2024-05-09T13:14:41.569Z,96944.69
2024-05-09T13:19:44.692Z,96949.06
2024-05-09T13:24:47.976Z,96958.22
2024-05-09T13:29:54.363Z,96969.88
2024-05-09T13:34:57.541Z,96975.78
2024-05-09T13:40:00.779Z,96977.00
2024-05-09T13:45:09.676Z,96983.16
2024-05-09T13:50:20.200Z,96998.00
2024-05-09T13:55:30.208Z,97011.34
2024-05-09T14:00:44.473Z,97015.00
2024-05-09T14:05:52.235Z,97024.63
2024-05-09T14:10:56.779Z,97030.72
2024-05-09T14:16:02.886Z,97024.06
2024-05-09T14:21:06.264Z,97025.13
2024-05-09T14:26:09.375Z,97027.97
2024-05-09T14:31:15.561Z,97027.97
2024-05-09T14:36:18.760Z,97038.69
2024-05-09T14:41:21.878Z,97039.63
2024-05-09T14:46:27.956Z,97036.63
2024-05-09T14:51:31.192Z,97033.16
2024-05-09T14:56:34.272Z,97043.53
2024-05-09T15:01:40.307Z,97048.94
2024-05-09T15:06:43.633Z,97057.84
2024-05-09T15:11:46.954Z,97059.31
2024-05-09T15:16:52.962Z,97054.88
2024-05-09T15:21:56.147Z,97065.22
2024-05-09T15:26:59.355Z,97057.75
2024-05-09T15:32:06.357Z,97070.63
2024-05-09T15:37:09.037Z,97087.00
2024-05-09T15:42:12.374Z,97095.41
2024-05-09T15:47:18.634Z,97113.66
2024-05-09T15:52:21.746Z,97124.47
2024-05-09T15:57:24.922Z,97109.44
2024-05-09T16:02:30.992Z,97126.63
2024-05-09T16:07:34.234Z,97127.47
2024-05-09T16:12:37.516Z,97135.66
2024-05-09T16:17:43.431Z,97146.13
2024-05-09T16:22:46.657Z,97151.53
2024-05-09T16:27:51.339Z,97141.22
2024-05-09T16:32:57.833Z,97167.06
2024-05-09T16:38:01.880Z,97165.34
2024-05-09T16:43:05.764Z,97170.06
2024-05-09T16:48:12.430Z,97151.91
2024-05-09T16:53:15.714Z,97144.91
2024-05-09T16:58:19.398Z,97144.66
2024-05-09T17:03:25.646Z,97151.91
2024-05-09T17:08:28.842Z,97146.47
2024-05-09T17:13:31.968Z,97149.75
2024-05-09T17:18:38.159Z,97153.94
2024-05-09T17:23:41.271Z,97147.97
2024-05-09T17:28:44.422Z,97145.69
2024-05-09T17:33:50.893Z,97147.56
2024-05-09T17:38:54.216Z,97152.25
2024-05-09T17:43:57.424Z,97147.25
2024-05-09T17:49:03.721Z,97146.47
2024-05-09T17:54:06.950Z,97160.78
2024-05-09T17:59:11.637Z,97149.50
2024-05-09T18:04:18.805Z,97160.72
2024-05-09T18:09:22.159Z,97151.63
2024-05-09T18:14:25.318Z,97157.28
2024-05-09T18:19:31.427Z,97169.94
2024-05-09T18:24:34.104Z,97170.16
2024-05-09T18:29:37.390Z,97169.13
2024-05-09T18:34:43.646Z,97169.31
2024-05-09T18:39:46.407Z,97165.16
2024-05-09T18:44:49.586Z,97178.47
2024-05-09T18:49:55.501Z,97180.09
2024-05-09T18:54:58.692Z,97176.25
2024-05-09T19:00:02.830Z,97174.44
2024-05-09T19:05:10.265Z,97171.31
2024-05-09T19:10:22.206Z,97164.72
2024-05-09T19:15:28.962Z,97165.41
2024-05-09T19:20:36.378Z,97169.16
2024-05-09T19:25:40.768Z,97165.22
2024-05-09T19:30:44.068Z,97166.66
2024-05-09T19:35:50.159Z,97173.91
2024-05-09T19:40:53.413Z,97176.56
2024-05-09T19:45:56.737Z,97176.22
2024-05-09T19:51:03.200Z,97167.88
2024-05-09T19:56:06.777Z,97182.41
2024-05-09T20:01:10.144Z,97181.25
2024-05-09T20:06:16.292Z,97190.13
2024-05-09T20:11:19.505Z,97197.41
2024-05-09T20:16:22.977Z,97192.53
2024-05-09T20:21:28.934Z,97183.47
2024-05-09T20:26:31.974Z,97174.91
2024-05-09T20:31:35.073Z,97185.91
2024-05-09T20:36:41.379Z,97192.06
2024-05-09T20:41:44.513Z,97189.97
2024-05-09T20:46:47.649Z,97188.81
2024-05-09T20:51:53.661Z,97181.75
2024-05-09T20:56:56.791Z,97189.84
2024-05-09T21:02:00.007Z,97186.75
2024-05-09T21:07:06.088Z,97186.91
2024-05-09T21:12:09.310Z,97202.53
2024-05-09T21:17:13.547Z,97194.47
2024-05-09T21:22:19.734Z,97193.16
2024-05-09T21:27:22.645Z,97192.09
2024-05-09T21:32:25.885Z,97183.31
2024-05-09T21:37:32.492Z,97189.03
2024-05-09T21:42:35.629Z,97190.41
2024-05-09T21:47:38.952Z,97184.75
2024-05-09T21:52:44.977Z,97167.88
2024-05-09T21:57:48.368Z,97173.53
2024-05-09T22:02:51.732Z,97168.88
2024-05-09T22:08:07.424Z,97165.22
2024-05-09T22:13:10.788Z,97175.69
2024-05-09T22:18:14.149Z,97175.09
2024-05-09T22:23:20.149Z,97181.63
2024-05-09T22:28:23.285Z,97179.78
2024-05-09T22:33:26.727Z,97178.50
2024-05-09T22:38:33.400Z,97178.19
2024-05-09T22:43:36.581Z,97184.25
2024-05-09T22:48:39.841Z,97186.13
2024-05-09T22:53:45.965Z,97194.66
2024-05-09T22:58:50.008Z,97191.09
2024-05-09T23:03:53.372Z,97200.31
2024-05-09T23:08:59.402Z,97210.19
2024-05-09T23:14:02.530Z,97199.81
2024-05-09T23:19:05.680Z,97206.78
2024-05-09T23:24:11.640Z,97211.84
2024-05-09T23:29:14.757Z,97215.72
2024-05-09T23:34:18.093Z,97224.88
2024-05-09T23:39:24.860Z,97216.91
2024-05-09T23:44:27.991Z,97233.16
2024-05-09T23:49:31.224Z,97223.69
2024-05-09T23:54:37.302Z,97240.28
2024-05-09T23:59:40.427Z,97237.97
